sensor_id;sensor_type;location;lat;lon;timestamp;temperature;humidity
13697;DHT22;6920;50.080;8.226;2023-11-22T00:00:37;6.80;99.90
13697;DHT22;6920;50.080;8.226;2023-11-22T00:03:05;6.80;99.90
13697;DHT22;6920;50.080;8.226;2023-11-22T00:05:34;6.90;99.90
13697;DHT22;6920;50.080;8.226;2023-11-22T00:08:03;6.90;99.90
13697;DHT22;6920;50.080;8.226;2023-11-22T00:10:32;6.90;99.90
13697;DHT22;6920;50.080;8.226;2023-11-22T00:13:00;6.80;99.90
13697;DHT22;6920;50.080;8.226;2023-11-22T00:15:27;6.80;99.90
13697;DHT22;6920;50.080;8.226;2023-11-22T00:17:58;6.70;99.90
13697;DHT22;6920;50.080;8.226;2023-11-22T00:20:29;6.70;99.90
13697;DHT22;6920;50.080;8.226;2023-11-22T00:23:09;6.70;99.90
13697;DHT22;6920;50.080;8.226;2023-11-22T00:25:40;6.60;99.90
13697;DHT22;6920;50.080;8.226;2023-11-22T00:28:07;6.50;99.90
13697;DHT22;6920;50.080;8.226;2023-11-22T00:30:34;6.50;99.90
13697;DHT22;6920;50.080;8.226;2023-11-22T00:33:03;6.50;99.90
13697;DHT22;6920;50.080;8.226;2023-11-22T00:35:30;6.30;99.90
13697;DHT22;6920;50.080;8.226;2023-11-22T00:37:57;6.30;99.90
13697;DHT22;6920;50.080;8.226;2023-11-22T00:40:26;6.30;99.90
13697;DHT22;6920;50.080;8.226;2023-11-22T00:42:54;6.30;99.90
13697;DHT22;6920;50.080;8.226;2023-11-22T00:47:52;6.10;99.90
13697;DHT22;6920;50.080;8.226;2023-11-22T00:50:19;6.00;99.90
13697;DHT22;6920;50.080;8.226;2023-11-22T00:52:49;5.90;99.90
13697;DHT22;6920;50.080;8.226;2023-11-22T00:55:19;5.90;99.90
13697;DHT22;6920;50.080;8.226;2023-11-22T00:57:48;5.80;99.90
13697;DHT22;6920;50.080;8.226;2023-11-22T01:05:22;5.70;99.90
13697;DHT22;6920;50.080;8.226;2023-11-22T01:07:51;5.70;99.90
13697;DHT22;6920;50.080;8.226;2023-11-22T01:10:18;5.60;99.90
13697;DHT22;6920;50.080;8.226;2023-11-22T01:12:45;5.60;99.90
13697;DHT22;6920;50.080;8.226;2023-11-22T01:15:14;5.60;99.90
13697;DHT22;6920;50.080;8.226;2023-11-22T01:20:25;5.60;99.90
13697;DHT22;6920;50.080;8.226;2023-11-22T01:22:52;5.50;99.90
13697;DHT22;6920;50.080;8.226;2023-11-22T01:25:19;5.50;99.90
13697;DHT22;6920;50.080;8.226;2023-11-22T01:27:47;5.40;99.90
13697;DHT22;6920;50.080;8.226;2023-11-22T01:35:17;5.30;99.90
13697;DHT22;6920;50.080;8.226;2023-11-22T01:37:44;5.40;99.90
13697;DHT22;6920;50.080;8.226;2023-11-22T01:40:13;5.30;99.90
13697;DHT22;6920;50.080;8.226;2023-11-22T01:42:40;5.30;99.90
13697;DHT22;6920;50.080;8.226;2023-11-22T01:45:12;5.30;99.90
13697;DHT22;6920;50.080;8.226;2023-11-22T01:47:40;5.30;99.90
13697;DHT22;6920;50.080;8.226;2023-11-22T01:50:10;5.40;99.90
13697;DHT22;6920;50.080;8.226;2023-11-22T01:52:41;5.30;99.90
13697;DHT22;6920;50.080;8.226;2023-11-22T01:55:10;5.20;99.90
13697;DHT22;6920;50.080;8.226;2023-11-22T01:57:39;5.20;99.90
13697;DHT22;6920;50.080;8.226;2023-11-22T02:00:07;5.10;99.90
13697;DHT22;6920;50.080;8.226;2023-11-22T02:02:41;5.20;99.90
13697;DHT22;6920;50.080;8.226;2023-11-22T02:05:11;5.20;99.90
13697;DHT22;6920;50.080;8.226;2023-11-22T02:07:41;5.20;99.90
13697;DHT22;6920;50.080;8.226;2023-11-22T02:10:10;5.20;99.90
13697;DHT22;6920;50.080;8.226;2023-11-22T02:12:41;5.20;99.90
13697;DHT22;6920;50.080;8.226;2023-11-22T02:17:40;5.20;99.90
13697;DHT22;6920;50.080;8.226;2023-11-22T02:20:16;5.20;99.90
13697;DHT22;6920;50.080;8.226;2023-11-22T02:22:47;5.10;99.90
13697;DHT22;6920;50.080;8.226;2023-11-22T02:25:20;5.10;99.90
13697;DHT22;6920;50.080;8.226;2023-11-22T02:27:48;5.20;99.90
13697;DHT22;6920;50.080;8.226;2023-11-22T02:30:15;5.10;99.90
13697;DHT22;6920;50.080;8.226;2023-11-22T02:32:44;5.00;99.90
13697;DHT22;6920;50.080;8.226;2023-11-22T02:35:13;5.00;99.90
13697;DHT22;6920;50.080;8.226;2023-11-22T02:37:43;5.00;99.90
13697;DHT22;6920;50.080;8.226;2023-11-22T02:40:17;5.10;99.90
13697;DHT22;6920;50.080;8.226;2023-11-22T02:42:46;5.10;99.90
13697;DHT22;6920;50.080;8.226;2023-11-22T02:45:15;5.10;99.90
13697;DHT22;6920;50.080;8.226;2023-11-22T02:50:20;5.00;99.90
13697;DHT22;6920;50.080;8.226;2023-11-22T02:55:17;5.00;99.90
13697;DHT22;6920;50.080;8.226;2023-11-22T02:57:47;5.00;99.90
13697;DHT22;6920;50.080;8.226;2023-11-22T03:00:16;5.00;99.90
13697;DHT22;6920;50.080;8.226;2023-11-22T03:02:45;5.00;99.90
13697;DHT22;6920;50.080;8.226;2023-11-22T03:05:20;5.00;99.90
13697;DHT22;6920;50.080;8.226;2023-11-22T03:07:48;5.00;99.90
13697;DHT22;6920;50.080;8.226;2023-11-22T03:10:17;5.00;99.90
13697;DHT22;6920;50.080;8.226;2023-11-22T03:12:48;5.00;99.90
13697;DHT22;6920;50.080;8.226;2023-11-22T03:15:21;4.90;99.90
13697;DHT22;6920;50.080;8.226;2023-11-22T03:17:49;4.80;99.90
13697;DHT22;6920;50.080;8.226;2023-11-22T03:20:16;4.80;99.90
13697;DHT22;6920;50.080;8.226;2023-11-22T03:22:45;4.80;99.90
13697;DHT22;6920;50.080;8.226;2023-11-22T03:25:20;4.80;99.90
13697;DHT22;6920;50.080;8.226;2023-11-22T03:27:52;4.80;99.90
13697;DHT22;6920;50.080;8.226;2023-11-22T03:30:21;4.80;99.90
13697;DHT22;6920;50.080;8.226;2023-11-22T03:32:48;4.70;99.90
13697;DHT22;6920;50.080;8.226;2023-11-22T03:35:15;4.70;99.90
13697;DHT22;6920;50.080;8.226;2023-11-22T03:37:43;4.70;99.90
13697;DHT22;6920;50.080;8.226;2023-11-22T03:40:12;4.60;99.90
13697;DHT22;6920;50.080;8.226;2023-11-22T03:42:41;4.60;99.90
13697;DHT22;6920;50.080;8.226;2023-11-22T03:45:10;4.60;99.90
13697;DHT22;6920;50.080;8.226;2023-11-22T03:47:40;4.60;99.90
13697;DHT22;6920;50.080;8.226;2023-11-22T03:50:08;4.60;99.90
13697;DHT22;6920;50.080;8.226;2023-11-22T03:52:35;4.40;99.90
13697;DHT22;6920;50.080;8.226;2023-11-22T03:55:13;4.50;99.90
13697;DHT22;6920;50.080;8.226;2023-11-22T03:57:42;4.50;99.90
13697;DHT22;6920;50.080;8.226;2023-11-22T04:00:12;4.50;99.90
13697;DHT22;6920;50.080;8.226;2023-11-22T04:02:39;4.40;99.90
13697;DHT22;6920;50.080;8.226;2023-11-22T04:05:10;4.40;99.90
13697;DHT22;6920;50.080;8.226;2023-11-22T04:07:38;4.20;99.90
13697;DHT22;6920;50.080;8.226;2023-11-22T04:10:09;4.30;99.90
13697;DHT22;6920;50.080;8.226;2023-11-22T04:12:36;4.20;99.90
13697;DHT22;6920;50.080;8.226;2023-11-22T04:15:06;4.20;99.90
13697;DHT22;6920;50.080;8.226;2023-11-22T04:17:44;4.20;99.90
13697;DHT22;6920;50.080;8.226;2023-11-22T04:20:14;4.30;99.90
13697;DHT22;6920;50.080;8.226;2023-11-22T04:22:44;4.30;99.90
13697;DHT22;6920;50.080;8.226;2023-11-22T04:25:13;4.40;99.90
13697;DHT22;6920;50.080;8.226;2023-11-22T04:27:41;4.40;99.90
13697;DHT22;6920;50.080;8.226;2023-11-22T04:30:11;4.30;99.90
13697;DHT22;6920;50.080;8.226;2023-11-22T04:32:41;4.30;99.90
13697;DHT22;6920;50.080;8.226;2023-11-22T04:35:12;4.30;99.90
13697;DHT22;6920;50.080;8.226;2023-11-22T04:37:40;4.20;99.90
13697;DHT22;6920;50.080;8.226;2023-11-22T04:40:08;4.20;99.90
13697;DHT22;6920;50.080;8.226;2023-11-22T04:42:38;4.20;99.90
13697;DHT22;6920;50.080;8.226;2023-11-22T04:45:08;4.30;99.90
13697;DHT22;6920;50.080;8.226;2023-11-22T04:47:35;4.30;99.90
13697;DHT22;6920;50.080;8.226;2023-11-22T04:50:06;4.30;99.90
13697;DHT22;6920;50.080;8.226;2023-11-22T04:52:35;4.30;99.90
13697;DHT22;6920;50.080;8.226;2023-11-22T04:55:02;4.30;99.90
13697;DHT22;6920;50.080;8.226;2023-11-22T04:57:30;4.20;99.90
13697;DHT22;6920;50.080;8.226;2023-11-22T05:02:26;4.10;99.90
13697;DHT22;6920;50.080;8.226;2023-11-22T05:04:57;4.10;99.90
13697;DHT22;6920;50.080;8.226;2023-11-22T05:07:25;4.10;99.90
13697;DHT22;6920;50.080;8.226;2023-11-22T05:09:53;4.00;99.90
13697;DHT22;6920;50.080;8.226;2023-11-22T05:12:21;4.00;99.90
13697;DHT22;6920;50.080;8.226;2023-11-22T05:14:49;3.90;99.90
13697;DHT22;6920;50.080;8.226;2023-11-22T05:17:16;3.90;99.90
13697;DHT22;6920;50.080;8.226;2023-11-22T05:22:12;3.90;99.90
13697;DHT22;6920;50.080;8.226;2023-11-22T05:24:41;3.90;99.90
13697;DHT22;6920;50.080;8.226;2023-11-22T05:27:08;3.80;99.90
13697;DHT22;6920;50.080;8.226;2023-11-22T05:29:36;3.80;99.90
13697;DHT22;6920;50.080;8.226;2023-11-22T05:32:06;3.80;99.90
13697;DHT22;6920;50.080;8.226;2023-11-22T05:34:36;3.80;99.90
13697;DHT22;6920;50.080;8.226;2023-11-22T05:37:06;3.80;99.90
13697;DHT22;6920;50.080;8.226;2023-11-22T05:39:34;3.80;99.90
13697;DHT22;6920;50.080;8.226;2023-11-22T05:42:04;3.80;99.90
13697;DHT22;6920;50.080;8.226;2023-11-22T05:44:32;3.90;99.90
13697;DHT22;6920;50.080;8.226;2023-11-22T05:47:00;3.80;99.90
13697;DHT22;6920;50.080;8.226;2023-11-22T05:49:30;3.70;99.90
13697;DHT22;6920;50.080;8.226;2023-11-22T05:54:27;3.60;99.90
13697;DHT22;6920;50.080;8.226;2023-11-22T05:56:57;3.60;99.90
13697;DHT22;6920;50.080;8.226;2023-11-22T05:59:31;3.50;99.90
13697;DHT22;6920;50.080;8.226;2023-11-22T06:01:58;3.60;99.90
13697;DHT22;6920;50.080;8.226;2023-11-22T06:04:25;3.50;99.90
13697;DHT22;6920;50.080;8.226;2023-11-22T06:06:57;3.40;99.90
13697;DHT22;6920;50.080;8.226;2023-11-22T06:09:24;3.50;99.90
13697;DHT22;6920;50.080;8.226;2023-11-22T06:11:53;3.40;99.90
13697;DHT22;6920;50.080;8.226;2023-11-22T06:14:22;3.40;99.90
13697;DHT22;6920;50.080;8.226;2023-11-22T06:16:54;3.50;99.90
13697;DHT22;6920;50.080;8.226;2023-11-22T06:19:31;3.50;99.90
13697;DHT22;6920;50.080;8.226;2023-11-22T06:22:02;3.50;99.90
13697;DHT22;6920;50.080;8.226;2023-11-22T06:24:30;3.50;99.90
13697;DHT22;6920;50.080;8.226;2023-11-22T06:27:00;3.50;99.90
13697;DHT22;6920;50.080;8.226;2023-11-22T06:29:28;3.50;99.90
13697;DHT22;6920;50.080;8.226;2023-11-22T06:31:57;3.50;99.90
13697;DHT22;6920;50.080;8.226;2023-11-22T06:37:09;3.50;99.90
13697;DHT22;6920;50.080;8.226;2023-11-22T06:39:36;3.50;99.90
13697;DHT22;6920;50.080;8.226;2023-11-22T06:42:04;3.60;99.90
13697;DHT22;6920;50.080;8.226;2023-11-22T06:44:33;3.50;99.90
13697;DHT22;6920;50.080;8.226;2023-11-22T06:47:02;3.40;99.90
13697;DHT22;6920;50.080;8.226;2023-11-22T06:49:30;3.40;99.90
13697;DHT22;6920;50.080;8.226;2023-11-22T06:51:57;3.40;99.90
13697;DHT22;6920;50.080;8.226;2023-11-22T06:54:24;3.50;99.90
13697;DHT22;6920;50.080;8.226;2023-11-22T06:56:55;3.40;99.90
13697;DHT22;6920;50.080;8.226;2023-11-22T07:01:49;3.40;99.90
13697;DHT22;6920;50.080;8.226;2023-11-22T07:04:22;3.30;99.90
13697;DHT22;6920;50.080;8.226;2023-11-22T07:06:51;3.30;99.90
13697;DHT22;6920;50.080;8.226;2023-11-22T07:11:51;3.30;99.90
13697;DHT22;6920;50.080;8.226;2023-11-22T07:14:19;3.30;99.90
13697;DHT22;6920;50.080;8.226;2023-11-22T07:16:48;3.30;99.90
13697;DHT22;6920;50.080;8.226;2023-11-22T07:19:16;3.30;99.90
13697;DHT22;6920;50.080;8.226;2023-11-22T07:21:45;3.30;99.90
13697;DHT22;6920;50.080;8.226;2023-11-22T07:26:41;3.20;99.90
13697;DHT22;6920;50.080;8.226;2023-11-22T07:29:09;3.20;99.90
13697;DHT22;6920;50.080;8.226;2023-11-22T07:34:10;3.30;99.90
13697;DHT22;6920;50.080;8.226;2023-11-22T07:36:38;3.30;99.90
13697;DHT22;6920;50.080;8.226;2023-11-22T07:39:09;3.30;99.90
13697;DHT22;6920;50.080;8.226;2023-11-22T07:41:37;3.20;99.90
13697;DHT22;6920;50.080;8.226;2023-11-22T07:44:05;3.20;99.90
13697;DHT22;6920;50.080;8.226;2023-11-22T07:46:39;3.20;99.90
13697;DHT22;6920;50.080;8.226;2023-11-22T07:49:25;3.60;99.90
13697;DHT22;6920;50.080;8.226;2023-11-22T07:52:03;3.70;99.90
13697;DHT22;6920;50.080;8.226;2023-11-22T07:54:36;3.70;99.90
13697;DHT22;6920;50.080;8.226;2023-11-22T07:57:08;3.70;99.90
13697;DHT22;6920;50.080;8.226;2023-11-22T07:59:40;3.60;99.90
13697;DHT22;6920;50.080;8.226;2023-11-22T08:02:15;3.50;99.90
13697;DHT22;6920;50.080;8.226;2023-11-22T08:04:46;3.40;99.90
13697;DHT22;6920;50.080;8.226;2023-11-22T08:07:18;3.40;99.90
13697;DHT22;6920;50.080;8.226;2023-11-22T08:09:53;3.40;99.90
13697;DHT22;6920;50.080;8.226;2023-11-22T08:12:24;3.40;99.90
13697;DHT22;6920;50.080;8.226;2023-11-22T08:14:53;3.50;99.90
13697;DHT22;6920;50.080;8.226;2023-11-22T08:17:24;3.50;99.90
13697;DHT22;6920;50.080;8.226;2023-11-22T08:19:59;3.40;99.90
13697;DHT22;6920;50.080;8.226;2023-11-22T08:22:33;3.40;99.90
13697;DHT22;6920;50.080;8.226;2023-11-22T08:25:08;3.50;99.90
13697;DHT22;6920;50.080;8.226;2023-11-22T08:27:40;3.50;99.90
13697;DHT22;6920;50.080;8.226;2023-11-22T08:30:10;3.60;99.90
13697;DHT22;6920;50.080;8.226;2023-11-22T08:32:41;3.60;99.90
13697;DHT22;6920;50.080;8.226;2023-11-22T08:35:09;3.50;99.90
13697;DHT22;6920;50.080;8.226;2023-11-22T08:37:39;3.50;99.90
13697;DHT22;6920;50.080;8.226;2023-11-22T08:40:12;3.60;99.90
13697;DHT22;6920;50.080;8.226;2023-11-22T08:42:43;3.60;99.90
13697;DHT22;6920;50.080;8.226;2023-11-22T08:45:14;3.70;99.90
13697;DHT22;6920;50.080;8.226;2023-11-22T08:47:42;3.60;99.90
13697;DHT22;6920;50.080;8.226;2023-11-22T08:50:09;3.80;99.90
13697;DHT22;6920;50.080;8.226;2023-11-22T08:52:38;3.80;99.90
13697;DHT22;6920;50.080;8.226;2023-11-22T08:55:06;3.80;99.90
13697;DHT22;6920;50.080;8.226;2023-11-22T08:57:37;3.80;99.90
13697;DHT22;6920;50.080;8.226;2023-11-22T09:00:09;3.90;99.90
13697;DHT22;6920;50.080;8.226;2023-11-22T09:02:38;3.80;99.90
13697;DHT22;6920;50.080;8.226;2023-11-22T09:05:08;3.90;99.90
13697;DHT22;6920;50.080;8.226;2023-11-22T09:07:38;4.00;99.90
13697;DHT22;6920;50.080;8.226;2023-11-22T09:10:06;4.10;99.90
13697;DHT22;6920;50.080;8.226;2023-11-22T09:12:37;4.10;99.90
13697;DHT22;6920;50.080;8.226;2023-11-22T09:15:11;4.20;99.90
13697;DHT22;6920;50.080;8.226;2023-11-22T09:17:39;4.10;99.90
13697;DHT22;6920;50.080;8.226;2023-11-22T09:20:09;4.10;99.90
13697;DHT22;6920;50.080;8.226;2023-11-22T09:22:42;4.30;99.90
13697;DHT22;6920;50.080;8.226;2023-11-22T09:25:20;4.20;99.90
13697;DHT22;6920;50.080;8.226;2023-11-22T09:27:52;4.30;99.90
13697;DHT22;6920;50.080;8.226;2023-11-22T09:30:23;4.30;99.90
13697;DHT22;6920;50.080;8.226;2023-11-22T09:33:06;4.10;99.90
13697;DHT22;6920;50.080;8.226;2023-11-22T09:35:38;4.20;99.90
13697;DHT22;6920;50.080;8.226;2023-11-22T09:38:10;4.20;99.90
13697;DHT22;6920;50.080;8.226;2023-11-22T09:40:41;4.00;99.90
13697;DHT22;6920;50.080;8.226;2023-11-22T09:43:17;4.10;99.90
13697;DHT22;6920;50.080;8.226;2023-11-22T09:45:48;4.00;99.90
13697;DHT22;6920;50.080;8.226;2023-11-22T09:48:17;4.00;99.90
13697;DHT22;6920;50.080;8.226;2023-11-22T09:50:57;4.10;99.90
13697;DHT22;6920;50.080;8.226;2023-11-22T09:53:32;4.00;99.90
13697;DHT22;6920;50.080;8.226;2023-11-22T09:56:05;4.00;99.90
13697;DHT22;6920;50.080;8.226;2023-11-22T09:58:40;3.90;99.90
13697;DHT22;6920;50.080;8.226;2023-11-22T10:01:12;3.90;99.90
13697;DHT22;6920;50.080;8.226;2023-11-22T10:03:42;3.90;99.90
13697;DHT22;6920;50.080;8.226;2023-11-22T10:06:10;3.80;99.90
13697;DHT22;6920;50.080;8.226;2023-11-22T10:08:44;3.80;99.90
13697;DHT22;6920;50.080;8.226;2023-11-22T10:11:15;3.80;99.90
13697;DHT22;6920;50.080;8.226;2023-11-22T10:13:47;4.00;99.90
13697;DHT22;6920;50.080;8.226;2023-11-22T10:16:19;4.10;99.90
13697;DHT22;6920;50.080;8.226;2023-11-22T10:18:49;4.40;99.90
13697;DHT22;6920;50.080;8.226;2023-11-22T10:21:24;4.20;99.90
13697;DHT22;6920;50.080;8.226;2023-11-22T10:23:54;4.30;99.90
13697;DHT22;6920;50.080;8.226;2023-11-22T10:26:24;4.60;99.90
13697;DHT22;6920;50.080;8.226;2023-11-22T10:28:54;4.70;99.90
13697;DHT22;6920;50.080;8.226;2023-11-22T10:31:25;4.60;99.90
13697;DHT22;6920;50.080;8.226;2023-11-22T10:33:54;4.40;99.90
13697;DHT22;6920;50.080;8.226;2023-11-22T10:36:22;4.40;99.90
13697;DHT22;6920;50.080;8.226;2023-11-22T10:38:49;4.40;99.90
13697;DHT22;6920;50.080;8.226;2023-11-22T10:41:21;4.70;99.90
13697;DHT22;6920;50.080;8.226;2023-11-22T10:43:52;4.50;99.90
13697;DHT22;6920;50.080;8.226;2023-11-22T10:46:28;4.50;99.90
13697;DHT22;6920;50.080;8.226;2023-11-22T10:48:57;4.80;99.90
13697;DHT22;6920;50.080;8.226;2023-11-22T10:51:29;5.30;99.90
13697;DHT22;6920;50.080;8.226;2023-11-22T10:54:00;5.00;99.90
13697;DHT22;6920;50.080;8.226;2023-11-22T10:56:35;5.60;99.90
13697;DHT22;6920;50.080;8.226;2023-11-22T10:59:09;5.60;99.90
13697;DHT22;6920;50.080;8.226;2023-11-22T11:01:43;5.80;99.90
13697;DHT22;6920;50.080;8.226;2023-11-22T11:04:24;6.10;99.90
13697;DHT22;6920;50.080;8.226;2023-11-22T11:06:54;6.00;99.90
13697;DHT22;6920;50.080;8.226;2023-11-22T11:09:36;6.50;99.90
13697;DHT22;6920;50.080;8.226;2023-11-22T11:12:20;6.60;99.90
13697;DHT22;6920;50.080;8.226;2023-11-22T11:14:50;6.50;99.90
13697;DHT22;6920;50.080;8.226;2023-11-22T11:17:21;6.40;99.90
13697;DHT22;6920;50.080;8.226;2023-11-22T11:19:53;6.20;99.90
13697;DHT22;6920;50.080;8.226;2023-11-22T11:22:21;6.00;99.90
13697;DHT22;6920;50.080;8.226;2023-11-22T11:25:00;5.60;99.90
13697;DHT22;6920;50.080;8.226;2023-11-22T11:27:36;5.20;99.90
13697;DHT22;6920;50.080;8.226;2023-11-22T11:33:07;5.20;99.90
13697;DHT22;6920;50.080;8.226;2023-11-22T11:35:42;5.10;99.90
13697;DHT22;6920;50.080;8.226;2023-11-22T11:38:15;5.10;99.90
13697;DHT22;6920;50.080;8.226;2023-11-22T11:40:53;5.30;99.90
13697;DHT22;6920;50.080;8.226;2023-11-22T11:43:39;5.20;99.90
13697;DHT22;6920;50.080;8.226;2023-11-22T11:46:10;5.20;99.90
13697;DHT22;6920;50.080;8.226;2023-11-22T11:48:51;5.30;99.90
13697;DHT22;6920;50.080;8.226;2023-11-22T11:51:28;5.40;99.90
13697;DHT22;6920;50.080;8.226;2023-11-22T11:53:56;5.50;99.90
13697;DHT22;6920;50.080;8.226;2023-11-22T11:56:25;5.30;99.90
13697;DHT22;6920;50.080;8.226;2023-11-22T11:58:57;5.80;99.90
13697;DHT22;6920;50.080;8.226;2023-11-22T12:01:28;5.60;99.90
13697;DHT22;6920;50.080;8.226;2023-11-22T12:04:02;5.60;99.90
13697;DHT22;6920;50.080;8.226;2023-11-22T12:06:32;5.60;99.90
13697;DHT22;6920;50.080;8.226;2023-11-22T12:09:05;5.80;99.90
13697;DHT22;6920;50.080;8.226;2023-11-22T12:11:36;6.10;99.90
13697;DHT22;6920;50.080;8.226;2023-11-22T12:14:04;5.90;99.90
13697;DHT22;6920;50.080;8.226;2023-11-22T12:16:31;6.20;99.90
13697;DHT22;6920;50.080;8.226;2023-11-22T12:19:01;5.50;99.90
13697;DHT22;6920;50.080;8.226;2023-11-22T12:21:30;5.60;99.90
13697;DHT22;6920;50.080;8.226;2023-11-22T12:23:59;5.80;99.90
13697;DHT22;6920;50.080;8.226;2023-11-22T12:26:32;6.20;99.90
13697;DHT22;6920;50.080;8.226;2023-11-22T12:29:02;6.20;99.90
13697;DHT22;6920;50.080;8.226;2023-11-22T12:31:33;6.20;99.90
13697;DHT22;6920;50.080;8.226;2023-11-22T12:34:08;6.50;99.90
13697;DHT22;6920;50.080;8.226;2023-11-22T12:36:40;6.40;99.90
13697;DHT22;6920;50.080;8.226;2023-11-22T12:39:12;6.20;99.90
13697;DHT22;6920;50.080;8.226;2023-11-22T12:41:43;5.80;99.90
13697;DHT22;6920;50.080;8.226;2023-11-22T12:44:11;5.90;99.90
13697;DHT22;6920;50.080;8.226;2023-11-22T12:46:48;5.60;99.90
13697;DHT22;6920;50.080;8.226;2023-11-22T12:49:26;5.30;99.90
13697;DHT22;6920;50.080;8.226;2023-11-22T12:51:54;5.30;99.90
13697;DHT22;6920;50.080;8.226;2023-11-22T12:54:24;5.40;99.90
13697;DHT22;6920;50.080;8.226;2023-11-22T12:56:52;5.30;99.90
13697;DHT22;6920;50.080;8.226;2023-11-22T12:59:26;5.10;99.90
13697;DHT22;6920;50.080;8.226;2023-11-22T13:02:00;6.50;99.90
13697;DHT22;6920;50.080;8.226;2023-11-22T13:04:40;5.30;99.90
13697;DHT22;6920;50.080;8.226;2023-11-22T13:07:08;5.00;99.90
13697;DHT22;6920;50.080;8.226;2023-11-22T13:09:36;4.90;99.90
13697;DHT22;6920;50.080;8.226;2023-11-22T13:12:04;4.90;99.90
13697;DHT22;6920;50.080;8.226;2023-11-22T13:14:32;4.90;99.90
13697;DHT22;6920;50.080;8.226;2023-11-22T13:17:04;5.10;99.90
13697;DHT22;6920;50.080;8.226;2023-11-22T13:19:36;5.20;99.90
13697;DHT22;6920;50.080;8.226;2023-11-22T13:22:08;5.20;99.90
13697;DHT22;6920;50.080;8.226;2023-11-22T13:24:39;5.10;99.90
13697;DHT22;6920;50.080;8.226;2023-11-22T13:27:09;5.10;99.90
13697;DHT22;6920;50.080;8.226;2023-11-22T13:29:37;5.10;99.90
13697;DHT22;6920;50.080;8.226;2023-11-22T13:32:05;5.20;99.90
13697;DHT22;6920;50.080;8.226;2023-11-22T13:34:37;5.10;99.90
13697;DHT22;6920;50.080;8.226;2023-11-22T13:37:24;4.80;99.90
13697;DHT22;6920;50.080;8.226;2023-11-22T13:39:54;4.70;99.90
13697;DHT22;6920;50.080;8.226;2023-11-22T13:42:23;4.60;99.90
13697;DHT22;6920;50.080;8.226;2023-11-22T13:44:50;4.60;99.90
13697;DHT22;6920;50.080;8.226;2023-11-22T13:47:18;4.60;99.90
13697;DHT22;6920;50.080;8.226;2023-11-22T13:49:47;4.70;99.90
13697;DHT22;6920;50.080;8.226;2023-11-22T13:52:17;4.90;99.90
13697;DHT22;6920;50.080;8.226;2023-11-22T13:54:50;5.00;99.90
13697;DHT22;6920;50.080;8.226;2023-11-22T13:57:22;4.80;99.90
13697;DHT22;6920;50.080;8.226;2023-11-22T13:59:49;4.70;99.90
13697;DHT22;6920;50.080;8.226;2023-11-22T14:02:19;4.70;99.90
13697;DHT22;6920;50.080;8.226;2023-11-22T14:04:48;4.60;99.90
13697;DHT22;6920;50.080;8.226;2023-11-22T14:07:17;4.60;99.90
13697;DHT22;6920;50.080;8.226;2023-11-22T14:09:45;4.60;99.90
13697;DHT22;6920;50.080;8.226;2023-11-22T14:12:15;4.60;99.90
13697;DHT22;6920;50.080;8.226;2023-11-22T14:14:44;4.40;99.90
13697;DHT22;6920;50.080;8.226;2023-11-22T14:17:13;4.40;99.90
13697;DHT22;6920;50.080;8.226;2023-11-22T14:19:40;4.30;99.90
13697;DHT22;6920;50.080;8.226;2023-11-22T14:22:10;4.30;99.90
13697;DHT22;6920;50.080;8.226;2023-11-22T14:24:41;4.40;99.90
13697;DHT22;6920;50.080;8.226;2023-11-22T14:30:22;4.50;99.90
13697;DHT22;6920;50.080;8.226;2023-11-22T14:32:53;4.30;99.90
13697;DHT22;6920;50.080;8.226;2023-11-22T14:35:22;4.30;99.90
13697;DHT22;6920;50.080;8.226;2023-11-22T14:37:50;4.30;99.90
13697;DHT22;6920;50.080;8.226;2023-11-22T14:40:21;4.40;99.90
13697;DHT22;6920;50.080;8.226;2023-11-22T14:42:56;4.40;99.90
13697;DHT22;6920;50.080;8.226;2023-11-22T14:45:26;4.30;99.90
13697;DHT22;6920;50.080;8.226;2023-11-22T14:47:55;4.20;99.90
13697;DHT22;6920;50.080;8.226;2023-11-22T14:50:25;4.20;99.90
13697;DHT22;6920;50.080;8.226;2023-11-22T14:52:53;4.10;99.90
13697;DHT22;6920;50.080;8.226;2023-11-22T14:57:52;4.00;99.90
13697;DHT22;6920;50.080;8.226;2023-11-22T15:00:23;4.00;99.90
13697;DHT22;6920;50.080;8.226;2023-11-22T15:02:57;4.00;99.90
13697;DHT22;6920;50.080;8.226;2023-11-22T15:05:28;3.90;99.90
13697;DHT22;6920;50.080;8.226;2023-11-22T15:07:57;4.00;99.90
13697;DHT22;6920;50.080;8.226;2023-11-22T15:10:26;4.00;99.90
13697;DHT22;6920;50.080;8.226;2023-11-22T15:12:54;4.10;99.90
13697;DHT22;6920;50.080;8.226;2023-11-22T15:15:23;4.00;99.90
13697;DHT22;6920;50.080;8.226;2023-11-22T15:17:52;4.00;99.90
13697;DHT22;6920;50.080;8.226;2023-11-22T15:20:20;3.90;99.90
13697;DHT22;6920;50.080;8.226;2023-11-22T15:22:48;3.90;99.90
13697;DHT22;6920;50.080;8.226;2023-11-22T15:25:16;3.90;99.90
13697;DHT22;6920;50.080;8.226;2023-11-22T15:30:18;4.00;99.90
13697;DHT22;6920;50.080;8.226;2023-11-22T15:32:45;3.90;99.90
13697;DHT22;6920;50.080;8.226;2023-11-22T15:35:16;3.90;99.90
13697;DHT22;6920;50.080;8.226;2023-11-22T15:37:54;3.90;99.90
13697;DHT22;6920;50.080;8.226;2023-11-22T15:40:24;4.00;99.90
13697;DHT22;6920;50.080;8.226;2023-11-22T15:42:52;4.20;99.90
13697;DHT22;6920;50.080;8.226;2023-11-22T15:45:21;4.10;99.90
13697;DHT22;6920;50.080;8.226;2023-11-22T15:47:48;4.20;99.90
13697;DHT22;6920;50.080;8.226;2023-11-22T15:50:18;4.10;99.90
13697;DHT22;6920;50.080;8.226;2023-11-22T15:52:47;4.00;99.90
13697;DHT22;6920;50.080;8.226;2023-11-22T15:55:20;4.10;99.90
13697;DHT22;6920;50.080;8.226;2023-11-22T15:57:49;4.10;99.90
13697;DHT22;6920;50.080;8.226;2023-11-22T16:00:18;4.10;99.90
13697;DHT22;6920;50.080;8.226;2023-11-22T16:02:48;4.10;99.90
13697;DHT22;6920;50.080;8.226;2023-11-22T16:05:20;4.00;99.90
13697;DHT22;6920;50.080;8.226;2023-11-22T16:07:49;3.90;99.90
13697;DHT22;6920;50.080;8.226;2023-11-22T16:10:19;4.00;99.90
13697;DHT22;6920;50.080;8.226;2023-11-22T16:12:46;4.00;99.90
13697;DHT22;6920;50.080;8.226;2023-11-22T16:15:19;4.00;99.90
13697;DHT22;6920;50.080;8.226;2023-11-22T16:17:47;4.00;99.90
13697;DHT22;6920;50.080;8.226;2023-11-22T16:20:18;4.10;99.90
13697;DHT22;6920;50.080;8.226;2023-11-22T16:22:51;4.00;99.90
13697;DHT22;6920;50.080;8.226;2023-11-22T16:25:22;3.90;99.90
13697;DHT22;6920;50.080;8.226;2023-11-22T16:27:52;3.90;99.90
13697;DHT22;6920;50.080;8.226;2023-11-22T16:30:22;3.90;99.90
13697;DHT22;6920;50.080;8.226;2023-11-22T16:32:53;3.90;99.90
13697;DHT22;6920;50.080;8.226;2023-11-22T16:36:07;3.90;99.90
13697;DHT22;6920;50.080;8.226;2023-11-22T16:38:51;3.90;99.90
13697;DHT22;6920;50.080;8.226;2023-11-22T16:41:23;4.00;99.90
13697;DHT22;6920;50.080;8.226;2023-11-22T16:43:54;4.00;99.90
13697;DHT22;6920;50.080;8.226;2023-11-22T16:46:22;3.90;99.90
13697;DHT22;6920;50.080;8.226;2023-11-22T16:48:53;3.80;99.90
13697;DHT22;6920;50.080;8.226;2023-11-22T16:51:27;3.70;99.90
13697;DHT22;6920;50.080;8.226;2023-11-22T16:54:03;3.70;99.90
13697;DHT22;6920;50.080;8.226;2023-11-22T16:56:35;3.60;99.90
13697;DHT22;6920;50.080;8.226;2023-11-22T16:59:02;3.60;99.90
13697;DHT22;6920;50.080;8.226;2023-11-22T17:01:30;3.70;99.90
13697;DHT22;6920;50.080;8.226;2023-11-22T17:03:59;3.70;99.90
13697;DHT22;6920;50.080;8.226;2023-11-22T17:06:29;3.60;99.90
13697;DHT22;6920;50.080;8.226;2023-11-22T17:09:00;3.60;99.90
13697;DHT22;6920;50.080;8.226;2023-11-22T17:11:29;3.70;99.90
13697;DHT22;6920;50.080;8.226;2023-11-22T17:13:58;3.70;99.90
13697;DHT22;6920;50.080;8.226;2023-11-22T17:16:28;3.60;99.90